createdAt,value
2022-09-11T00:01:25.417Z,20.51
2022-09-11T00:03:54.878Z,20.51
2022-09-11T00:06:29.884Z,20.51
2022-09-11T00:09:01.353Z,20.51
2022-09-11T00:11:32.157Z,20.49
2022-09-11T00:14:00.311Z,20.49
2022-09-11T00:16:31.964Z,20.50
2022-09-11T00:19:02.167Z,20.49
2022-09-11T00:21:31.948Z,20.48
2022-09-11T00:23:59.960Z,20.40
2022-09-11T00:26:28.769Z,20.46
2022-09-11T00:28:57.305Z,20.44
2022-09-11T00:31:28.492Z,20.43
2022-09-11T00:33:57.999Z,20.43
2022-09-11T00:36:28.522Z,20.39
2022-09-11T00:38:57.965Z,20.36
2022-09-11T00:41:28.655Z,20.36
2022-09-11T00:44:02.590Z,20.35
2022-09-11T00:46:40.927Z,20.35
2022-09-11T00:49:22.530Z,20.36
2022-09-11T00:51:55.030Z,20.34
2022-09-11T00:54:28.526Z,20.33
2022-09-11T00:56:59.927Z,20.31
2022-09-11T00:59:30.459Z,20.29
2022-09-11T01:01:58.753Z,20.27
2022-09-11T01:04:29.638Z,20.28
2022-09-11T01:06:59.271Z,20.26
2022-09-11T01:09:29.233Z,20.24
2022-09-11T01:12:05.190Z,20.25
2022-09-11T01:14:43.521Z,20.25
2022-09-11T01:17:22.562Z,20.25
2022-09-11T01:20:26.889Z,20.23
2022-09-11T01:23:36.166Z,20.22
2022-09-11T01:26:25.094Z,20.21
2022-09-11T01:29:01.032Z,20.18
2022-09-11T01:31:43.284Z,20.15
2022-09-11T01:34:17.615Z,20.13
2022-09-11T01:36:54.329Z,20.09
2022-09-11T01:39:27.094Z,20.07
2022-09-11T01:42:02.038Z,20.06
2022-09-11T01:44:36.891Z,20.02
2022-09-11T01:47:06.756Z,19.97
2022-09-11T01:49:38.973Z,19.94
2022-09-11T01:52:11.928Z,19.91
2022-09-11T01:54:43.030Z,19.88
2022-09-11T01:57:18.371Z,19.86
2022-09-11T01:59:49.117Z,19.90
2022-09-11T02:02:22.210Z,19.87
2022-09-11T02:04:57.392Z,19.85
2022-09-11T02:07:30.218Z,19.80
2022-09-11T02:10:01.476Z,19.79
2022-09-11T02:12:36.400Z,19.77
2022-09-11T02:15:06.796Z,19.77
2022-09-11T02:17:44.367Z,19.76
2022-09-11T02:20:12.506Z,19.73
2022-09-11T02:22:40.496Z,19.73
2022-09-11T02:25:09.425Z,19.71
2022-09-11T02:27:37.195Z,19.70
2022-09-11T02:30:07.827Z,19.70
2022-09-11T02:32:37.715Z,19.69
2022-09-11T02:35:07.409Z,19.67
2022-09-11T02:37:51.705Z,19.66
2022-09-11T02:40:38.588Z,19.61
2022-09-11T02:43:22.717Z,19.63
2022-09-11T02:46:07.632Z,19.62
2022-09-11T02:48:46.647Z,19.60
2022-09-11T02:51:26.595Z,19.59
2022-09-11T02:54:02.542Z,19.56
2022-09-11T02:56:40.776Z,19.53
2022-09-11T02:59:13.406Z,19.51
2022-09-11T03:01:53.985Z,19.46
2022-09-11T03:04:24.608Z,19.46
2022-09-11T03:06:54.018Z,19.43
2022-09-11T03:09:21.790Z,19.44
2022-09-11T03:11:50.124Z,19.42
2022-09-11T03:14:18.491Z,19.40
2022-09-11T03:16:46.212Z,19.39
2022-09-11T03:19:15.863Z,19.38
2022-09-11T03:21:43.929Z,19.35
2022-09-11T03:24:13.618Z,19.35
2022-09-11T03:26:41.518Z,19.33
2022-09-11T03:29:09.583Z,19.31
2022-09-11T03:31:39.341Z,19.31
2022-09-11T03:34:07.480Z,19.28
2022-09-11T03:36:37.100Z,19.27
2022-09-11T03:39:04.966Z,19.25
2022-09-11T03:41:33.389Z,19.22
2022-09-11T03:44:01.129Z,19.22
2022-09-11T03:46:29.455Z,19.20
2022-09-11T03:48:57.279Z,19.19
2022-09-11T03:51:26.761Z,19.19
2022-09-11T03:53:55.862Z,19.19
2022-09-11T03:56:24.530Z,19.20
2022-09-11T03:58:57.098Z,19.21
2022-09-11T04:01:25.593Z,19.20
2022-09-11T04:03:53.801Z,19.21
2022-09-11T04:06:22.247Z,19.22
2022-09-11T04:08:50.009Z,19.23
2022-09-11T04:11:19.517Z,19.23
2022-09-11T04:13:47.287Z,19.22
2022-09-11T04:16:18.153Z,19.23
2022-09-11T04:18:47.331Z,19.23
2022-09-11T04:21:16.996Z,19.22
2022-09-11T04:23:45.581Z,19.21
2022-09-11T04:26:19.616Z,19.19
2022-09-11T04:28:48.682Z,19.15
2022-09-11T04:31:18.041Z,19.15
2022-09-11T04:33:46.895Z,19.13
2022-09-11T04:36:17.455Z,19.11
2022-09-11T04:38:47.561Z,19.09
2022-09-11T04:41:16.627Z,19.08
2022-09-11T04:43:46.150Z,19.07
2022-09-11T04:46:16.132Z,19.07
2022-09-11T04:48:48.080Z,19.08
2022-09-11T04:51:22.193Z,19.08
2022-09-11T04:53:51.041Z,19.06
2022-09-11T04:56:20.728Z,19.09
2022-09-11T04:58:55.507Z,19.09
2022-09-11T05:01:24.502Z,19.07
2022-09-11T05:03:52.835Z,19.08
2022-09-11T05:06:20.811Z,19.08
2022-09-11T05:08:49.050Z,19.05
2022-09-11T05:11:18.424Z,19.04
2022-09-11T05:13:46.848Z,19.03
2022-09-11T05:16:17.870Z,19.04
2022-09-11T05:18:52.402Z,19.04
2022-09-11T05:21:22.650Z,19.00
2022-09-11T05:23:52.040Z,18.98
2022-09-11T05:26:21.758Z,18.97
2022-09-11T05:28:54.105Z,18.96
2022-09-11T05:31:24.221Z,18.96
2022-09-11T05:33:53.074Z,18.97
2022-09-11T05:36:22.122Z,18.97
2022-09-11T05:38:49.877Z,18.99
2022-09-11T05:41:18.223Z,19.00
2022-09-11T05:43:46.181Z,19.01
2022-09-11T05:46:16.770Z,19.02
2022-09-11T05:48:46.095Z,19.02
2022-09-11T05:51:16.085Z,19.01
2022-09-11T05:53:44.381Z,19.01
2022-09-11T05:56:16.237Z,19.04
2022-09-11T05:58:44.599Z,19.03
2022-09-11T06:01:14.828Z,19.04
2022-09-11T06:03:42.883Z,19.06
2022-09-11T06:06:14.006Z,19.09
2022-09-11T06:08:44.134Z,19.11
2022-09-11T06:11:14.323Z,19.15
2022-09-11T06:13:44.208Z,19.18
2022-09-11T06:16:18.091Z,19.22
2022-09-11T06:18:49.302Z,19.24
2022-09-11T06:21:20.618Z,19.27
2022-09-11T06:23:49.187Z,19.27
2022-09-11T06:26:19.174Z,19.30
2022-09-11T06:28:47.619Z,19.31
2022-09-11T06:31:17.314Z,19.32
2022-09-11T06:33:46.231Z,19.35
2022-09-11T06:36:15.661Z,19.36
2022-09-11T06:38:45.853Z,19.40
2022-09-11T06:41:16.128Z,19.41
2022-09-11T06:43:45.937Z,19.42
2022-09-11T06:46:15.258Z,19.43
2022-09-11T06:48:44.803Z,19.47
2022-09-11T06:51:15.246Z,19.48
2022-09-11T06:53:45.855Z,19.51
2022-09-11T06:56:16.237Z,19.52
2022-09-11T06:58:44.450Z,19.54
2022-09-11T07:01:13.587Z,19.56
2022-09-11T07:03:46.262Z,19.60
2022-09-11T07:06:14.134Z,19.63
2022-09-11T07:08:42.043Z,19.66
2022-09-11T07:11:12.801Z,19.63
2022-09-11T07:13:41.092Z,19.70
2022-09-11T07:16:10.553Z,19.72
2022-09-11T07:18:39.997Z,19.74
2022-09-11T07:21:08.873Z,19.77
2022-09-11T07:23:36.972Z,19.80
2022-09-11T07:26:06.177Z,19.82
2022-09-11T07:28:36.456Z,19.86
2022-09-11T07:31:10.928Z,19.87
2022-09-11T07:33:39.416Z,19.89
2022-09-11T07:36:12.398Z,19.93
2022-09-11T07:38:41.687Z,19.95
2022-09-11T07:41:10.797Z,19.96
2022-09-11T07:43:41.847Z,19.99
2022-09-11T07:46:11.348Z,20.00
2022-09-11T07:48:40.834Z,20.02
2022-09-11T07:51:10.848Z,20.04
2022-09-11T07:53:40.786Z,20.06
2022-09-11T07:56:10.583Z,20.08
2022-09-11T07:58:40.978Z,20.13
2022-09-11T08:01:10.994Z,20.15
2022-09-11T08:03:39.252Z,20.17
2022-09-11T08:06:09.807Z,20.21
2022-09-11T08:08:38.371Z,20.26
2022-09-11T08:11:08.596Z,20.30
2022-09-11T08:13:36.737Z,20.34
2022-09-11T08:16:06.801Z,20.41
2022-09-11T08:18:37.571Z,20.46
2022-09-11T08:21:12.629Z,20.51
2022-09-11T08:23:42.198Z,20.59
2022-09-11T08:26:11.691Z,20.64
2022-09-11T08:28:43.145Z,20.68
2022-09-11T08:31:13.740Z,20.71
2022-09-11T08:33:42.207Z,20.74
2022-09-11T08:36:14.637Z,20.77
2022-09-11T08:38:43.964Z,20.81
2022-09-11T08:41:18.621Z,20.84
2022-09-11T08:43:51.274Z,20.86
2022-09-11T08:46:24.633Z,20.92
2022-09-11T08:49:00.254Z,20.94
2022-09-11T08:51:28.077Z,20.97
2022-09-11T08:53:57.834Z,20.94
2022-09-11T08:56:30.317Z,21.02
2022-09-11T08:59:13.536Z,21.03
2022-09-11T09:01:49.929Z,21.05
2022-09-11T09:04:37.125Z,21.09
2022-09-11T09:07:16.601Z,21.13
2022-09-11T09:09:56.279Z,21.17
2022-09-11T09:12:32.467Z,21.22
2022-09-11T09:15:36.322Z,21.26
2022-09-11T09:18:12.531Z,21.30
2022-09-11T09:20:45.690Z,21.32
2022-09-11T09:23:20.618Z,21.35
2022-09-11T09:25:53.099Z,21.40
2022-09-11T09:28:24.746Z,21.40
2022-09-11T09:30:56.023Z,21.48
2022-09-11T09:33:31.767Z,21.50
2022-09-11T09:36:14.613Z,21.55
2022-09-11T09:38:42.743Z,21.59
2022-09-11T09:41:43.354Z,21.68
2022-09-11T09:44:19.967Z,21.77
2022-09-11T09:46:51.319Z,21.84
2022-09-11T09:49:24.184Z,21.91
2022-09-11T09:51:52.991Z,22.00
2022-09-11T09:54:23.267Z,22.09
2022-09-11T09:56:58.022Z,22.22
2022-09-11T09:59:33.604Z,22.36
2022-09-11T10:02:01.882Z,22.48
2022-09-11T10:04:31.231Z,22.62
2022-09-11T10:07:11.936Z,22.77
2022-09-11T10:09:48.462Z,22.91
2022-09-11T10:12:20.060Z,23.03
2022-09-11T10:14:53.414Z,23.16
2022-09-11T10:17:23.789Z,23.26
2022-09-11T10:19:57.071Z,23.39
2022-09-11T10:22:29.221Z,23.49
2022-09-11T10:25:13.898Z,23.55
2022-09-11T10:27:47.161Z,23.70
2022-09-11T10:30:34.344Z,23.78
2022-09-11T10:33:06.422Z,23.87
2022-09-11T10:35:37.788Z,23.97
2022-09-11T10:38:19.081Z,24.08
2022-09-11T10:41:08.353Z,24.16
2022-09-11T10:43:43.435Z,24.26
2022-09-11T10:46:28.405Z,24.34
2022-09-11T10:48:58.676Z,24.40
2022-09-11T10:51:31.181Z,24.43
2022-09-11T10:54:06.411Z,24.42
2022-09-11T10:56:35.522Z,24.46
2022-09-11T10:59:13.603Z,24.43
2022-09-11T11:01:41.537Z,24.40
2022-09-11T11:04:12.606Z,24.39
2022-09-11T11:06:57.081Z,24.37
2022-09-11T11:09:37.352Z,24.32
2022-09-11T11:12:22.664Z,24.27
2022-09-11T11:15:05.392Z,24.22
2022-09-11T11:17:41.753Z,24.18
2022-09-11T11:20:26.188Z,24.14
2022-09-11T11:23:22.219Z,24.12
2022-09-11T11:25:59.604Z,24.10
2022-09-11T11:28:54.577Z,24.12
2022-09-11T11:31:39.382Z,24.14
2022-09-11T11:34:35.082Z,24.17
2022-09-11T11:37:11.924Z,24.17
2022-09-11T11:39:50.621Z,24.15
2022-09-11T11:42:26.808Z,24.13
2022-09-11T11:44:59.353Z,24.11
2022-09-11T11:47:32.185Z,24.10
2022-09-11T11:50:06.631Z,24.08
2022-09-11T11:52:43.447Z,24.08
2022-09-11T11:55:21.355Z,24.06
2022-09-11T11:57:58.409Z,24.08
2022-09-11T12:00:30.350Z,24.06
2022-09-11T12:03:04.104Z,24.03
2022-09-11T12:05:34.420Z,24.00
2022-09-11T12:08:02.885Z,24.01
2022-09-11T12:10:35.960Z,24.03
2022-09-11T12:13:07.364Z,24.09
2022-09-11T12:15:37.113Z,24.13
2022-09-11T12:18:25.471Z,24.19
2022-09-11T12:20:53.787Z,24.23
2022-09-11T12:23:35.795Z,24.29
2022-09-11T12:26:18.622Z,24.36
2022-09-11T12:28:47.192Z,24.40
2022-09-11T12:31:16.665Z,24.48
2022-09-11T12:33:56.214Z,24.57
2022-09-11T12:36:30.022Z,24.64
2022-09-11T12:39:01.519Z,24.67
2022-09-11T12:41:33.576Z,24.52
2022-09-11T12:44:02.116Z,24.56
2022-09-11T12:47:16.542Z,24.55
2022-09-11T12:49:55.578Z,24.53
2022-09-11T12:52:33.856Z,24.51
2022-09-11T12:55:07.944Z,24.49
2022-09-11T12:57:40.817Z,24.46
2022-09-11T13:00:24.154Z,24.43
2022-09-11T13:02:56.863Z,24.43
2022-09-11T13:05:34.666Z,24.40
2022-09-11T13:08:06.322Z,24.38
2022-09-11T13:10:36.799Z,24.37
2022-09-11T13:13:07.355Z,24.35
2022-09-11T13:15:43.385Z,24.39
2022-09-11T13:18:26.139Z,24.43
2022-09-11T13:21:13.648Z,24.47
2022-09-11T13:23:42.999Z,24.48
2022-09-11T13:26:26.830Z,24.58
2022-09-11T13:28:58.459Z,24.64
2022-09-11T13:31:33.909Z,24.69
2022-09-11T13:34:04.471Z,24.72
2022-09-11T13:36:35.194Z,24.77
2022-09-11T13:39:05.365Z,24.79
2022-09-11T13:41:37.676Z,24.85
2022-09-11T13:44:12.393Z,24.89
2022-09-11T13:46:51.298Z,24.95
2022-09-11T13:49:33.471Z,24.98
2022-09-11T13:52:01.852Z,25.02
2022-09-11T13:54:32.586Z,25.04
2022-09-11T13:57:14.279Z,25.05
2022-09-11T13:59:48.964Z,25.06
2022-09-11T14:02:25.536Z,25.07
2022-09-11T14:04:58.954Z,25.01
2022-09-11T14:07:28.326Z,25.03
2022-09-11T14:10:02.163Z,24.96
2022-09-11T14:12:30.547Z,24.87
2022-09-11T14:15:04.228Z,24.92
2022-09-11T14:17:32.177Z,24.95
2022-09-11T14:20:02.181Z,24.97
2022-09-11T14:22:33.146Z,24.97
2022-09-11T14:25:14.739Z,24.94
2022-09-11T14:27:46.242Z,24.95
2022-09-11T14:30:38.611Z,24.97
2022-09-11T14:33:23.932Z,25.01
2022-09-11T14:35:54.567Z,25.05
2022-09-11T14:38:25.518Z,25.09
2022-09-11T14:40:58.222Z,25.14
2022-09-11T14:43:32.766Z,25.17
2022-09-11T14:46:03.899Z,25.21
2022-09-11T14:48:34.339Z,25.23
2022-09-11T14:51:11.253Z,25.27
2022-09-11T14:53:43.106Z,25.29
2022-09-11T14:56:11.611Z,25.34
2022-09-11T14:58:39.406Z,25.34
2022-09-11T15:01:13.904Z,25.37
2022-09-11T15:03:41.942Z,25.39
2022-09-11T15:06:17.326Z,25.42
2022-09-11T15:08:45.938Z,25.43
2022-09-11T15:11:14.424Z,25.47
2022-09-11T15:13:58.118Z,25.45
2022-09-11T15:16:31.740Z,25.43
2022-09-11T15:18:59.482Z,25.43
2022-09-11T15:21:27.814Z,25.43
2022-09-11T15:23:55.669Z,25.43
2022-09-11T15:26:24.020Z,25.43
2022-09-11T15:28:53.287Z,25.45
2022-09-11T15:31:21.198Z,25.44
2022-09-11T15:33:52.557Z,25.49
2022-09-11T15:36:22.035Z,25.50
2022-09-11T15:38:52.835Z,25.42
2022-09-11T15:41:21.902Z,25.42
2022-09-11T15:43:51.885Z,25.46
2022-09-11T15:46:21.092Z,25.45
2022-09-11T15:48:50.392Z,25.44
2022-09-11T15:51:23.597Z,25.47
2022-09-11T15:53:52.779Z,25.45
2022-09-11T15:56:25.882Z,25.45
2022-09-11T15:58:53.994Z,25.46
2022-09-11T16:01:24.504Z,25.46
2022-09-11T16:03:53.001Z,25.45
2022-09-11T16:06:25.052Z,25.45
2022-09-11T16:08:57.062Z,25.44
2022-09-11T16:11:25.170Z,25.43
2022-09-11T16:13:55.534Z,25.42
2022-09-11T16:16:24.105Z,25.42
2022-09-11T16:18:52.616Z,25.41
2022-09-11T16:21:23.126Z,25.41
2022-09-11T16:23:55.823Z,25.40
2022-09-11T16:26:27.586Z,25.40
2022-09-11T16:28:55.756Z,25.38
2022-09-11T16:31:23.760Z,25.38
2022-09-11T16:33:52.042Z,25.37
2022-09-11T16:36:22.601Z,25.35
2022-09-11T16:38:52.839Z,25.33
2022-09-11T16:41:23.531Z,25.34
2022-09-11T16:43:53.550Z,25.32
2022-09-11T16:46:23.672Z,25.31
2022-09-11T16:48:54.543Z,25.29
2022-09-11T16:51:25.211Z,25.29
2022-09-11T16:53:53.785Z,25.27
2022-09-11T16:56:23.640Z,25.25
2022-09-11T16:58:51.437Z,25.24
2022-09-11T17:01:21.531Z,25.23
2022-09-11T17:03:53.132Z,25.23
2022-09-11T17:06:22.330Z,25.20
2022-09-11T17:08:52.596Z,25.19
2022-09-11T17:11:22.311Z,25.18
2022-09-11T17:13:50.689Z,25.15
2022-09-11T17:16:20.764Z,25.13
2022-09-11T17:18:49.087Z,25.11
2022-09-11T17:21:17.620Z,25.09
2022-09-11T17:23:45.740Z,25.06
2022-09-11T17:26:16.822Z,25.04
2022-09-11T17:28:47.616Z,25.01
2022-09-11T17:31:16.872Z,24.96
2022-09-11T17:33:45.451Z,24.93
2022-09-11T17:36:17.190Z,24.89
2022-09-11T17:38:46.342Z,24.84
2022-09-11T17:41:20.080Z,24.81
2022-09-11T17:43:48.954Z,24.69
2022-09-11T17:46:18.681Z,24.70
2022-09-11T17:48:47.077Z,24.66
2022-09-11T17:51:17.669Z,24.60
2022-09-11T17:53:48.090Z,24.54
2022-09-11T17:56:20.494Z,24.50
2022-09-11T17:58:51.133Z,24.46
2022-09-11T18:01:18.938Z,24.39
2022-09-11T18:03:52.543Z,24.29
2022-09-11T18:06:24.028Z,24.23
2022-09-11T18:08:51.723Z,24.19
2022-09-11T18:11:21.014Z,24.14
2022-09-11T18:13:49.064Z,24.08
2022-09-11T18:16:17.822Z,24.02
2022-09-11T18:18:45.671Z,23.93
2022-09-11T18:21:13.406Z,23.91
2022-09-11T18:23:43.242Z,23.85
2022-09-11T18:26:19.893Z,23.76
2022-09-11T18:28:49.816Z,23.75
2022-09-11T18:31:17.725Z,23.69
2022-09-11T18:33:45.906Z,23.63
2022-09-11T18:36:14.071Z,23.59
2022-09-11T18:38:42.048Z,23.52
2022-09-11T18:41:09.791Z,23.48
2022-09-11T18:43:37.695Z,23.43
2022-09-11T18:46:07.032Z,23.38
2022-09-11T18:48:35.372Z,23.33
2022-09-11T18:51:07.251Z,23.31
2022-09-11T18:53:36.206Z,23.25
2022-09-11T18:56:05.747Z,23.21
2022-09-11T18:58:35.830Z,23.17
2022-09-11T19:01:07.898Z,23.13
2022-09-11T19:03:40.238Z,23.10
2022-09-11T19:06:10.292Z,23.06
2022-09-11T19:08:38.525Z,23.02
2022-09-11T19:11:09.348Z,22.97
2022-09-11T19:13:37.135Z,22.93
2022-09-11T19:16:07.931Z,22.87
2022-09-11T19:18:37.366Z,22.85
2022-09-11T19:21:10.453Z,22.81
2022-09-11T19:23:40.215Z,22.77
2022-09-11T19:26:12.169Z,22.73
2022-09-11T19:28:42.512Z,22.69
2022-09-11T19:31:14.671Z,22.65
2022-09-11T19:33:44.830Z,22.60
2022-09-11T19:36:15.294Z,22.56
2022-09-11T19:38:43.073Z,22.52
2022-09-11T19:41:12.844Z,22.47
2022-09-11T19:43:42.707Z,22.45
2022-09-11T19:46:14.328Z,22.42
2022-09-11T19:48:44.824Z,22.35
2022-09-11T19:51:14.578Z,22.29
2022-09-11T19:53:42.760Z,22.29
2022-09-11T19:56:12.648Z,22.26
2022-09-11T19:58:41.155Z,22.22
2022-09-11T20:01:12.412Z,22.18
2022-09-11T20:03:42.272Z,22.13
2022-09-11T20:06:12.050Z,22.08
2022-09-11T20:08:43.992Z,22.06
2022-09-11T20:11:14.943Z,22.02
2022-09-11T20:13:42.942Z,21.98
2022-09-11T20:16:15.416Z,21.96
2022-09-11T20:18:44.811Z,21.91
2022-09-11T20:21:13.784Z,21.89
2022-09-11T20:23:42.443Z,21.87
2022-09-11T20:26:16.315Z,21.85
2022-09-11T20:28:45.371Z,21.83
2022-09-11T20:31:15.714Z,21.82
2022-09-11T20:33:44.340Z,21.78
2022-09-11T20:36:13.369Z,21.68
2022-09-11T20:38:41.138Z,21.68
2022-09-11T20:41:10.227Z,21.65
2022-09-11T20:43:38.116Z,21.62
2022-09-11T20:46:06.206Z,21.60
2022-09-11T20:48:35.947Z,21.58
2022-09-11T20:51:04.797Z,21.54
2022-09-11T20:53:32.599Z,21.52
2022-09-11T20:56:04.155Z,21.51
2022-09-11T20:58:32.228Z,21.46
2022-09-11T21:01:00.697Z,21.43
2022-09-11T21:03:29.775Z,21.40
2022-09-11T21:06:00.530Z,21.39
2022-09-11T21:08:28.395Z,21.34
2022-09-11T21:10:56.529Z,21.31
2022-09-11T21:13:24.291Z,21.27
2022-09-11T21:15:52.122Z,21.21
2022-09-11T21:18:19.916Z,21.16
2022-09-11T21:20:54.922Z,21.14
2022-09-11T21:23:25.158Z,21.11
2022-09-11T21:25:53.004Z,21.06
2022-09-11T21:28:21.226Z,21.04
2022-09-11T21:30:49.491Z,21.02
2022-09-11T21:33:17.252Z,20.99
2022-09-11T21:35:45.035Z,20.98
2022-09-11T21:38:13.387Z,20.96
2022-09-11T21:40:42.520Z,20.95
2022-09-11T21:43:10.863Z,20.92
2022-09-11T21:45:38.626Z,20.90
2022-09-11T21:48:06.623Z,20.88
2022-09-11T21:50:34.866Z,20.86
2022-09-11T21:53:02.619Z,20.82
2022-09-11T21:55:30.829Z,20.81
2022-09-11T21:58:00.496Z,20.79
2022-09-11T22:00:28.238Z,20.75
2022-09-11T22:02:56.398Z,20.72
2022-09-11T22:05:24.309Z,20.70
2022-09-11T22:07:52.539Z,20.67
2022-09-11T22:10:21.299Z,20.64
2022-09-11T22:12:49.041Z,20.63
2022-09-11T22:15:19.094Z,20.62
2022-09-11T22:17:46.899Z,20.60
2022-09-11T22:20:15.239Z,20.57
2022-09-11T22:22:43.057Z,20.55
2022-09-11T22:25:11.198Z,20.53
2022-09-11T22:27:39.413Z,20.50
2022-09-11T22:30:09.657Z,20.50
2022-09-11T22:32:39.438Z,20.48
2022-09-11T22:35:07.640Z,20.43
2022-09-11T22:37:35.429Z,20.42
2022-09-11T22:40:05.022Z,20.39
2022-09-11T22:42:32.805Z,20.36
2022-09-11T22:45:00.557Z,20.34
2022-09-11T22:47:29.234Z,20.32
2022-09-11T22:49:58.356Z,20.30
2022-09-11T22:52:26.630Z,20.27
2022-09-11T22:54:54.475Z,20.25
2022-09-11T22:57:22.210Z,20.22
2022-09-11T22:59:50.316Z,20.20
2022-09-11T23:02:18.245Z,20.18
2022-09-11T23:05:06.700Z,20.17
2022-09-11T23:07:34.926Z,20.16
2022-09-11T23:10:02.834Z,20.12
2022-09-11T23:12:31.059Z,20.11
2022-09-11T23:14:58.782Z,20.10
2022-09-11T23:17:27.223Z,20.07
2022-09-11T23:19:54.946Z,20.05
2022-09-11T23:22:22.915Z,20.04
2022-09-11T23:24:52.551Z,20.00
2022-09-11T23:27:20.347Z,19.97
2022-09-11T23:29:48.793Z,19.97
2022-09-11T23:32:16.545Z,19.94
2022-09-11T23:34:44.294Z,19.92
2022-09-11T23:37:12.506Z,19.90
2022-09-11T23:39:40.325Z,19.88
2022-09-11T23:42:09.520Z,19.87
2022-09-11T23:44:37.805Z,19.85
2022-09-11T23:47:06.149Z,19.83
2022-09-11T23:49:36.371Z,19.81
2022-09-11T23:52:05.295Z,19.80
2022-09-11T23:54:33.669Z,19.79
2022-09-11T23:57:01.562Z,19.77
2022-09-11T23:59:35.643Z,19.76
